Time;durP1;ratioP1;P1;durP2;ratioP2;P2;SDS_P1;SDS_P2;PMS_P1;PMS_P2;Temp;Humidity;BMP_temperature;BMP_pressure;BME280_temperature;BME280_humidity;BME280_pressure;Samples;Min_cycle;Max_cycle;Signal;HPM_P1;HPM_P2
2022/07/07 00:01:06;;;;;;;;;;;;;;;;;;4909712;29;19915;-90
2022/07/07 00:03:31;;;;;;;;;;;;;;;;;;4925087;29;20337;-89
2022/07/07 00:05:57;;;;;;;;;;;;;;;;;;4909345;28;19914;-89
2022/07/07 00:08:22;;;;;;;;;;;;;;;;;;4924813;29;19921;-90
2022/07/07 00:10:48;;;;;;;;;;;;;;;;;;4924924;29;19915;-89
2022/07/07 00:13:16;;;;;;;;;;;;;;;;;;4909129;29;20425;-89
2022/07/07 00:15:48;;;;;;;;;;;;;;;;;;4909918;29;19925;-90
2022/07/07 00:18:13;;;;;;;;;;;;;;;;;;4908859;29;20005;-90
2022/07/07 00:20:38;;;;;;;;;;;;;;;;;;4910046;29;20035;-89
2022/07/07 00:23:04;;;;;;;;;;;;;;;;;;4924922;29;20311;-90
2022/07/07 00:25:32;;;;;;;;;;;;;;;;;;4910648;29;19941;-89
2022/07/07 00:28:01;;;;;;;;;;;;;;;;;;4926413;29;20420;-88
2022/07/07 00:30:26;;;;;;;;;;;;;;;;;;4909487;29;19918;-89
2022/07/07 00:32:52;;;;;;;;;;;;;;;;;;4908747;29;19922;-89
2022/07/07 00:35:17;;;;;;;;;;;;;;;;;;4924719;29;19915;-90
2022/07/07 00:37:42;;;;;;;;;;;;;;;;;;4908852;29;19919;-90
2022/07/07 00:40:08;;;;;;;;;;;;;;;;;;4908844;29;20013;-89
2022/07/07 00:42:33;;;;;;;;;;;;;;;;;;4908387;29;19911;-89
2022/07/07 00:44:59;;;;;;;;;;;;;;;;;;4908726;29;20266;-89
2022/07/07 00:47:24;;;;;;;;;;;;;;;;;;4924496;29;19965;-90
2022/07/07 00:49:49;;;;;;;;;;;;;;;;;;4924384;29;19911;-88
2022/07/07 00:52:15;;;;;;;;;;;;;;;;;;4909296;29;19974;-88
2022/07/07 00:54:40;;;;;;;;;;;;;;;;;;4924822;29;19914;-89
2022/07/07 00:57:06;;;;;;;;;;;;;;;;;;4909422;29;20104;-89
2022/07/07 00:59:31;;;;;;;;;;;;;;;;;;4927862;29;19922;-90
2022/07/07 01:01:57;;;;;;;;;;;;;;;;;;4918309;29;19921;-87
2022/07/07 01:04:22;;;;;;;;;;;;;;;;;;4923175;29;19919;-89
2022/07/07 01:06:48;;;;;;;;;;;;;;;;;;4925129;29;19914;-91
2022/07/07 01:09:13;;;;;;;;;;;;;;;;;;4923820;29;19914;-89
2022/07/07 01:11:38;;;;;;;;;;;;;;;;;;4921157;29;19921;-90
2022/07/07 01:14:05;;;;;;;;;;;;;;;;;;4935880;29;19914;-90
2022/07/07 01:16:31;;;;;;;;;;;;;;;;;;4932536;29;19940;-89
2022/07/07 01:18:56;;;;;;;;;;;;;;;;;;4914303;29;19937;-89
2022/07/07 01:21:22;;;;;;;;;;;;;;;;;;4926008;29;19922;-90
2022/07/07 01:23:47;;;;;;;;;;;;;;;;;;4909081;29;20354;-89
2022/07/07 01:26:12;;;;;;;;;;;;;;;;;;4940954;28;20370;-88
2022/07/07 01:28:38;;;;;;;;;;;;;;;;;;4907796;29;19914;-88
2022/07/07 01:31:06;;;;;;;;;;;;;;;;;;4923757;29;19921;-88
2022/07/07 01:33:32;;;;;;;;;;;;;;;;;;4922864;29;20296;-88
2022/07/07 01:35:57;;;;;;;;;;;;;;;;;;4923435;28;20406;-88
2022/07/07 01:38:22;;;;;;;;;;;;;;;;;;4907831;29;19922;-88
2022/07/07 01:40:48;;;;;;;;;;;;;;;;;;4938912;29;19937;-89
2022/07/07 01:43:13;;;;;;;;;;;;;;;;;;4922954;29;19939;-87
2022/07/07 01:45:38;;;;;;;;;;;;;;;;;;4923304;29;19914;-88
2022/07/07 01:48:04;;;;;;;;;;;;;;;;;;4923423;29;19920;-89
2022/07/07 01:50:29;;;;;;;;;;;;;;;;;;4922980;29;19915;-90
2022/07/07 01:53:00;;;;;;;;;;;;;;;;;;4908231;28;19914;-90
2022/07/07 01:55:26;;;;;;;;;;;;;;;;;;4922537;29;19982;-88
2022/07/07 01:57:51;;;;;;;;;;;;;;;;;;4907404;29;20390;-89
2022/07/07 02:00:16;;;;;;;;;;;;;;;;;;4923237;29;19921;-88
2022/07/07 02:02:42;;;;;;;;;;;;;;;;;;4923537;29;19918;-90
2022/07/07 02:05:07;;;;;;;;;;;;;;;;;;4906905;29;19921;-89
2022/07/07 02:07:33;;;;;;;;;;;;;;;;;;4922730;29;19915;-89
2022/07/07 02:09:58;;;;;;;;;;;;;;;;;;4907196;29;19910;-89
2022/07/07 02:12:23;;;;;;;;;;;;;;;;;;4906925;29;19914;-90
2022/07/07 02:14:49;;;;;;;;;;;;;;;;;;4923010;29;19990;-89
2022/07/07 02:17:14;;;;;;;;;;;;;;;;;;4906937;29;20344;-91
2022/07/07 02:19:40;;;;;;;;;;;;;;;;;;4907201;29;19918;-90
2022/07/07 02:22:05;;;;;;;;;;;;;;;;;;4906651;29;19919;-90
2022/07/07 02:24:31;;;;;;;;;;;;;;;;;;4922565;29;20370;-92
2022/07/07 02:26:56;;;;;;;;;;;;;;;;;;4906765;29;19958;-90
2022/07/07 02:29:21;;;;;;;;;;;;;;;;;;4922802;29;19921;-90
2022/07/07 02:31:47;;;;;;;;;;;;;;;;;;4906968;29;19914;-90
2022/07/07 02:34:12;;;;;;;;;;;;;;;;;;4906854;29;20424;-90
2022/07/07 02:36:38;;;;;;;;;;;;;;;;;;4922362;29;19918;-90
2022/07/07 02:39:03;;;;;;;;;;;;;;;;;;4922217;29;19914;-90
2022/07/07 02:41:29;;;;;;;;;;;;;;;;;;4922235;29;19915;-90
2022/07/07 02:43:54;;;;;;;;;;;;;;;;;;4938475;29;19914;-90
2022/07/07 02:46:22;;;;;;;;;;;;;;;;;;4922700;29;20239;-88
2022/07/07 02:48:48;;;;;;;;;;;;;;;;;;4923320;29;19919;-88
2022/07/07 02:51:14;;;;;;;;;;;;;;;;;;4907342;29;19922;-89
2022/07/07 02:53:39;;;;;;;;;;;;;;;;;;4906952;29;19910;-89
2022/07/07 02:56:04;;;;;;;;;;;;;;;;;;4922598;28;19919;-90
2022/07/07 02:58:30;;;;;;;;;;;;;;;;;;4907510;29;19922;-89
2022/07/07 03:00:55;;;;;;;;;;;;;;;;;;4907294;29;19918;-90
2022/07/07 03:03:21;;;;;;;;;;;;;;;;;;4906512;29;20317;-90
2022/07/07 03:05:46;;;;;;;;;;;;;;;;;;4907834;29;20448;-90
2022/07/07 03:08:11;;;;;;;;;;;;;;;;;;4909609;29;19926;-90
2022/07/07 03:10:37;;;;;;;;;;;;;;;;;;4910018;29;19921;-90
2022/07/07 03:13:02;;;;;;;;;;;;;;;;;;4911104;29;20012;-89
2022/07/07 03:15:27;;;;;;;;;;;;;;;;;;4928771;29;19918;-90
2022/07/07 03:17:53;;;;;;;;;;;;;;;;;;4930063;29;20322;-90
2022/07/07 03:20:18;;;;;;;;;;;;;;;;;;4927185;29;19915;-89
2022/07/07 03:22:44;;;;;;;;;;;;;;;;;;4929074;29;19945;-88
2022/07/07 03:25:09;;;;;;;;;;;;;;;;;;4929326;29;19914;-89
2022/07/07 03:27:34;;;;;;;;;;;;;;;;;;4945328;29;19919;-89
2022/07/07 03:30:00;;;;;;;;;;;;;;;;;;4917430;29;20452;-88
2022/07/07 03:32:25;;;;;;;;;;;;;;;;;;4910990;29;19925;-88
2022/07/07 03:34:50;;;;;;;;;;;;;;;;;;4928928;29;19915;-89
2022/07/07 03:37:16;;;;;;;;;;;;;;;;;;4928666;29;19937;-91
2022/07/07 03:39:41;;;;;;;;;;;;;;;;;;4918416;29;19930;-90
2022/07/07 03:42:07;;;;;;;;;;;;;;;;;;4949949;29;19915;-89
2022/07/07 03:44:32;;;;;;;;;;;;;;;;;;4919403;29;19954;-90
2022/07/07 03:46:57;;;;;;;;;;;;;;;;;;4917764;29;19914;-88
2022/07/07 03:49:23;;;;;;;;;;;;;;;;;;4913283;29;19915;-91
2022/07/07 03:51:48;;;;;;;;;;;;;;;;;;4910543;29;19921;-91
2022/07/07 03:54:14;;;;;;;;;;;;;;;;;;4925448;29;19925;-91
2022/07/07 03:56:39;;;;;;;;;;;;;;;;;;4910590;29;19925;-89
2022/07/07 03:59:05;;;;;;;;;;;;;;;;;;4928242;29;20010;-91
2022/07/07 04:01:30;;;;;;;;;;;;;;;;;;4911384;29;20302;-90
2022/07/07 04:03:55;;;;;;;;;;;;;;;;;;4911948;29;19946;-89
2022/07/07 04:06:24;;;;;;;;;;;;;;;;;;4910997;29;20281;-86
2022/07/07 04:08:49;;;;;;;;;;;;;;;;;;4940389;29;19919;-88
2022/07/07 04:11:15;;;;;;;;;;;;;;;;;;4909220;29;19914;-87
2022/07/07 04:13:41;;;;;;;;;;;;;;;;;;4925411;29;19915;-88
2022/07/07 04:16:06;;;;;;;;;;;;;;;;;;4908834;28;20381;-88
2022/07/07 04:18:32;;;;;;;;;;;;;;;;;;4925153;29;19989;-89
2022/07/07 04:20:57;;;;;;;;;;;;;;;;;;4909643;29;19914;-87
2022/07/07 04:23:25;;;;;;;;;;;;;;;;;;4910502;29;19914;-86
2022/07/07 04:25:51;;;;;;;;;;;;;;;;;;4910661;28;19915;-88
2022/07/07 04:28:16;;;;;;;;;;;;;;;;;;4913080;29;19969;-88
2022/07/07 04:30:42;;;;;;;;;;;;;;;;;;4912874;29;20285;-89
2022/07/07 04:33:07;;;;;;;;;;;;;;;;;;4926322;29;19961;-90
2022/07/07 04:35:32;;;;;;;;;;;;;;;;;;4924736;29;19921;-90
2022/07/07 04:37:58;;;;;;;;;;;;;;;;;;4909134;29;19916;-88
2022/07/07 04:40:23;;;;;;;;;;;;;;;;;;4957609;29;19921;-89
2022/07/07 04:42:49;;;;;;;;;;;;;;;;;;4908503;29;20004;-89
2022/07/07 04:45:15;;;;;;;;;;;;;;;;;;4909066;29;19915;-89
2022/07/07 04:47:41;;;;;;;;;;;;;;;;;;4908965;29;19915;-90
2022/07/07 04:50:06;;;;;;;;;;;;;;;;;;4925154;29;19918;-88
2022/07/07 04:52:32;;;;;;;;;;;;;;;;;;4939882;29;19965;-90
2022/07/07 04:54:57;;;;;;;;;;;;;;;;;;4910077;29;19922;-90
2022/07/07 04:57:22;;;;;;;;;;;;;;;;;;4925556;29;19922;-89
2022/07/07 04:59:48;;;;;;;;;;;;;;;;;;4908553;29;19922;-89
2022/07/07 05:02:13;;;;;;;;;;;;;;;;;;4939522;29;19921;-89
2022/07/07 05:04:39;;;;;;;;;;;;;;;;;;4939155;29;19914;-88
2022/07/07 05:07:04;;;;;;;;;;;;;;;;;;4939991;29;20390;-90
2022/07/07 05:09:29;;;;;;;;;;;;;;;;;;4924381;29;20381;-89
2022/07/07 05:11:55;;;;;;;;;;;;;;;;;;4909094;29;19946;-87
2022/07/07 05:14:21;;;;;;;;;;;;;;;;;;4909626;29;19922;-88
2022/07/07 05:16:46;;;;;;;;;;;;;;;;;;4908468;29;19963;-88
2022/07/07 05:19:12;;;;;;;;;;;;;;;;;;4909449;29;19948;-87
2022/07/07 05:21:37;;;;;;;;;;;;;;;;;;4922794;29;20321;-87
2022/07/07 05:24:02;;;;;;;;;;;;;;;;;;4937806;29;19922;-88
2022/07/07 05:26:28;;;;;;;;;;;;;;;;;;4923113;29;19915;-87
2022/07/07 05:28:53;;;;;;;;;;;;;;;;;;4938512;29;19961;-87
2022/07/07 05:31:19;;;;;;;;;;;;;;;;;;4939039;29;19914;-85
2022/07/07 05:33:44;;;;;;;;;;;;;;;;;;4923583;29;19914;-88
2022/07/07 05:36:10;;;;;;;;;;;;;;;;;;4923118;28;19925;-88
2022/07/07 05:38:35;;;;;;;;;;;;;;;;;;4939260;29;19997;-89
2022/07/07 05:41:01;;;;;;;;;;;;;;;;;;4955956;29;20017;-89
2022/07/07 05:43:26;;;;;;;;;;;;;;;;;;4939268;29;19914;-90
2022/07/07 05:45:51;;;;;;;;;;;;;;;;;;4907495;28;19926;-90
2022/07/07 05:48:17;;;;;;;;;;;;;;;;;;4908484;29;19925;-89
2022/07/07 05:50:42;;;;;;;;;;;;;;;;;;4924192;29;19915;-89
2022/07/07 05:53:08;;;;;;;;;;;;;;;;;;4922563;29;20396;-88
2022/07/07 05:55:33;;;;;;;;;;;;;;;;;;4925465;29;20289;-88
2022/07/07 05:58:01;;;;;;;;;;;;;;;;;;4924306;29;20127;-89
2022/07/07 06:00:27;;;;;;;;;;;;;;;;;;4956087;29;20345;-89
2022/07/07 06:02:52;;;;;;;;;;;;;;;;;;4926380;29;19919;-89
2022/07/07 06:05:18;;;;;;;;;;;;;;;;;;4921656;29;19914;-89
2022/07/07 06:07:44;;;;;;;;;;;;;;;;;;4927687;29;19942;-90
2022/07/07 06:10:22;;;;;;;;;;;;;;;;;;4939350;29;19914;-90
2022/07/07 06:13:00;;;;;;;;;;;;;;;;;;4930897;29;19934;-90
2022/07/07 06:16:38;;;;;;;;;;;;;;;;;;4947796;28;19941;-90
2022/07/07 06:22:32;;;;;;;;;;;;;;;;;;4915095;29;19922;-92
2022/07/07 06:24:57;;;;;;;;;;;;;;;;;;4890735;29;19915;-91
2022/07/07 06:27:25;;;;;;;;;;;;;;;;;;4913467;29;20424;-92
2022/07/07 06:29:56;;;;;;;;;;;;;;;;;;4909446;29;19914;-91
2022/07/07 06:32:21;;;;;;;;;;;;;;;;;;4908561;29;19921;-92
2022/07/07 06:34:47;;;;;;;;;;;;;;;;;;4909231;29;19918;-92
2022/07/07 07:01:29;;;;;;;;;;;;;;;;;;5434199;23;19911;-93
2022/07/07 07:17:25;;;;;;;;;;;;;;;;;;5965185;23;19920;-90
2022/07/07 07:20:01;;;;;;;;;;;;;;;;;;5482306;23;19918;-92
2022/07/07 07:33:36;;;;;;;;;;;;;;;;;;5276445;23;20308;-90
2022/07/07 07:36:03;;;;;;;;;;;;;;;;;;5382359;23;19947;-89
2022/07/07 07:38:31;;;;;;;;;;;;;;;;;;5021399;28;19917;-88
2022/07/07 07:41:00;;;;;;;;;;;;;;;;;;5169125;23;20007;-89
2022/07/07 07:43:28;;;;;;;;;;;;;;;;;;5066367;23;19927;-92
2022/07/07 07:45:54;;;;;;;;;;;;;;;;;;5414015;23;19925;-80
2022/07/07 07:48:22;;;;;;;;;;;;;;;;;;5290288;23;19924;-81
2022/07/07 07:53:23;;;;;;;;;;;;;;;;;;5035167;23;19950;-90
2022/07/07 07:55:48;;;;;;;;;;;;;;;;;;5412382;23;19924;-82
2022/07/07 08:19:52;;;;;;;;;;;;;;;;;;5852583;23;19930;-81
2022/07/07 08:22:17;;;;;;;;;;;;;;;;;;4985997;28;19918;-80
2022/07/07 08:24:43;;;;;;;;;;;;;;;;;;4988721;28;19910;-81
2022/07/07 08:27:16;;;;;;;;;;;;;;;;;;4956684;28;19918;-82
2022/07/07 08:30:11;;;;;;;;;;;;;;;;;;4976329;28;19915;-80
2022/07/07 08:32:49;;;;;;;;;;;;;;;;;;4968711;28;19925;-80
2022/07/07 08:35:15;;;;;;;;;;;;;;;;;;4985553;28;19921;-80
2022/07/07 08:37:43;;;;;;;;;;;;;;;;;;4950167;28;20487;-78
2022/07/07 08:40:12;;;;;;;;;;;;;;;;;;4950162;28;19929;-80
2022/07/07 08:42:39;;;;;;;;;;;;;;;;;;4947766;28;19918;-80
2022/07/07 08:45:13;;;;;;;;;;;;;;;;;;4965270;28;19957;-80
2022/07/07 08:47:46;;;;;;;;;;;;;;;;;;4948094;28;19914;-80
2022/07/07 08:50:15;;;;;;;;;;;;;;;;;;4948506;28;20391;-81
2022/07/07 08:53:01;;;;;;;;;;;;;;;;;;4978373;28;19914;-78
2022/07/07 08:55:27;;;;;;;;;;;;;;;;;;4961807;28;19914;-80
2022/07/07 08:57:55;;;;;;;;;;;;;;;;;;4948107;28;19921;-80
2022/07/07 09:00:22;;;;;;;;;;;;;;;;;;4947004;28;19914;-80
2022/07/07 09:02:49;;;;;;;;;;;;;;;;;;4979186;28;19970;-80
2022/07/07 09:05:15;;;;;;;;;;;;;;;;;;4963450;28;19914;-81
2022/07/07 09:07:40;;;;;;;;;;;;;;;;;;4961693;28;19924;-79
2022/07/07 09:10:06;;;;;;;;;;;;;;;;;;4979453;28;19914;-80
2022/07/07 09:12:31;;;;;;;;;;;;;;;;;;4980525;28;19918;-80
2022/07/07 09:14:57;;;;;;;;;;;;;;;;;;4980787;28;20325;-79
2022/07/07 09:17:22;;;;;;;;;;;;;;;;;;4978683;28;19918;-80
2022/07/07 09:19:48;;;;;;;;;;;;;;;;;;4978908;28;19921;-81
2022/07/07 09:22:13;;;;;;;;;;;;;;;;;;4980766;28;19918;-79
2022/07/07 09:24:39;;;;;;;;;;;;;;;;;;4980754;28;19961;-79
2022/07/07 09:27:10;;;;;;;;;;;;;;;;;;4980789;28;19921;-79
2022/07/07 09:29:35;;;;;;;;;;;;;;;;;;4979923;28;19921;-79
2022/07/07 09:32:01;;;;;;;;;;;;;;;;;;4978955;28;20008;-79
2022/07/07 09:34:26;;;;;;;;;;;;;;;;;;4946149;28;19914;-79
2022/07/07 09:39:44;;;;;;;;;;;;;;;;;;4977846;28;19946;-81
2022/07/07 09:42:13;;;;;;;;;;;;;;;;;;4961316;28;19911;-79
2022/07/07 09:44:41;;;;;;;;;;;;;;;;;;4945679;28;20169;-79
2022/07/07 09:47:07;;;;;;;;;;;;;;;;;;4980378;28;19921;-80
2022/07/07 09:49:33;;;;;;;;;;;;;;;;;;4985039;28;19921;-79
2022/07/07 09:51:58;;;;;;;;;;;;;;;;;;4985909;28;19961;-80
2022/07/07 09:54:24;;;;;;;;;;;;;;;;;;4952323;28;19914;-80
2022/07/07 09:56:50;;;;;;;;;;;;;;;;;;4947738;28;19918;-80
2022/07/07 09:59:16;;;;;;;;;;;;;;;;;;4961417;28;20349;-80
2022/07/07 10:01:41;;;;;;;;;;;;;;;;;;4964904;28;19937;-80
2022/07/07 10:04:07;;;;;;;;;;;;;;;;;;4982775;28;19973;-79
2022/07/07 10:06:33;;;;;;;;;;;;;;;;;;4964081;28;19915;-79
2022/07/07 10:08:59;;;;;;;;;;;;;;;;;;4963520;28;19921;-79
2022/07/07 10:11:24;;;;;;;;;;;;;;;;;;4963593;28;19914;-80
2022/07/07 10:13:50;;;;;;;;;;;;;;;;;;4963963;28;19969;-80
2022/07/07 10:16:15;;;;;;;;;;;;;;;;;;4964342;28;19918;-81
2022/07/07 10:18:41;;;;;;;;;;;;;;;;;;4979647;28;19925;-80
2022/07/07 10:21:07;;;;;;;;;;;;;;;;;;4963612;28;20270;-78
2022/07/07 10:23:32;;;;;;;;;;;;;;;;;;4948169;28;19936;-79
2022/07/07 10:26:01;;;;;;;;;;;;;;;;;;4980651;28;19914;-80
2022/07/07 10:28:26;;;;;;;;;;;;;;;;;;4966252;28;19934;-78
2022/07/07 10:30:52;;;;;;;;;;;;;;;;;;4966109;28;19914;-79
2022/07/07 10:33:17;;;;;;;;;;;;;;;;;;4967465;28;19914;-79
2022/07/07 10:35:45;;;;;;;;;;;;;;;;;;4969044;28;19977;-80
2022/07/07 10:38:10;;;;;;;;;;;;;;;;;;4950341;28;19921;-80
2022/07/07 10:40:36;;;;;;;;;;;;;;;;;;4960835;28;19914;-81
2022/07/07 10:43:02;;;;;;;;;;;;;;;;;;4975390;28;19914;-79
2022/07/07 10:45:28;;;;;;;;;;;;;;;;;;4960371;28;19914;-79
2022/07/07 10:47:57;;;;;;;;;;;;;;;;;;4977187;28;19914;-80
2022/07/07 10:50:26;;;;;;;;;;;;;;;;;;4961802;28;20505;-80
2022/07/07 10:52:56;;;;;;;;;;;;;;;;;;4944974;28;19921;-80
2022/07/07 10:55:22;;;;;;;;;;;;;;;;;;4945178;28;19918;-81
2022/07/07 10:57:47;;;;;;;;;;;;;;;;;;4959850;28;19914;-79
2022/07/07 11:00:13;;;;;;;;;;;;;;;;;;4960249;28;19968;-80
2022/07/07 11:02:38;;;;;;;;;;;;;;;;;;4975533;28;19915;-80
2022/07/07 11:05:06;;;;;;;;;;;;;;;;;;4958966;28;19925;-79
2022/07/07 11:07:32;;;;;;;;;;;;;;;;;;4948044;28;19972;-80
2022/07/07 11:09:58;;;;;;;;;;;;;;;;;;4961670;28;19910;-81
2022/07/07 11:12:23;;;;;;;;;;;;;;;;;;4978551;28;20274;-79
2022/07/07 11:14:49;;;;;;;;;;;;;;;;;;4961349;28;20266;-81
2022/07/07 11:17:15;;;;;;;;;;;;;;;;;;4945207;28;19960;-79
2022/07/07 11:19:41;;;;;;;;;;;;;;;;;;4959562;28;19914;-79
2022/07/07 11:22:09;;;;;;;;;;;;;;;;;;4961419;28;19956;-79
2022/07/07 11:24:35;;;;;;;;;;;;;;;;;;4977147;28;19914;-81
2022/07/07 11:27:03;;;;;;;;;;;;;;;;;;4980248;28;19918;-79
2022/07/07 11:29:29;;;;;;;;;;;;;;;;;;4949184;28;20377;-79
2022/07/07 11:31:55;;;;;;;;;;;;;;;;;;4949718;28;19921;-79
2022/07/07 11:34:20;;;;;;;;;;;;;;;;;;4966222;28;19957;-80
2022/07/07 11:36:47;;;;;;;;;;;;;;;;;;4965322;28;19918;-81
2022/07/07 11:39:13;;;;;;;;;;;;;;;;;;4951032;28;19914;-81
2022/07/07 11:41:39;;;;;;;;;;;;;;;;;;4969101;28;20392;-80
2022/07/07 11:44:06;;;;;;;;;;;;;;;;;;4966009;28;19914;-80
2022/07/07 11:46:33;;;;;;;;;;;;;;;;;;4952034;28;19917;-81
2022/07/07 11:48:58;;;;;;;;;;;;;;;;;;4953903;28;19914;-80
2022/07/07 11:51:28;;;;;;;;;;;;;;;;;;4984960;28;19920;-80
2022/07/07 11:54:00;;;;;;;;;;;;;;;;;;4957773;28;19914;-80
2022/07/07 11:56:29;;;;;;;;;;;;;;;;;;4974289;28;19918;-80
2022/07/07 11:58:55;;;;;;;;;;;;;;;;;;4974239;28;19917;-81
2022/07/07 12:01:24;;;;;;;;;;;;;;;;;;4959555;28;20180;-81
2022/07/07 12:03:50;;;;;;;;;;;;;;;;;;4960448;28;19914;-82
2022/07/07 12:06:15;;;;;;;;;;;;;;;;;;4961763;28;19921;-82
2022/07/07 12:08:41;;;;;;;;;;;;;;;;;;4961017;28;20284;-80
2022/07/07 12:11:08;;;;;;;;;;;;;;;;;;4961222;28;20018;-80
2022/07/07 12:13:34;;;;;;;;;;;;;;;;;;4958777;28;19921;-80
2022/07/07 12:16:03;;;;;;;;;;;;;;;;;;4975779;28;19977;-81
2022/07/07 12:18:32;;;;;;;;;;;;;;;;;;4976539;28;19914;-80
2022/07/07 12:20:58;;;;;;;;;;;;;;;;;;4974428;28;19918;-81
2022/07/07 12:23:27;;;;;;;;;;;;;;;;;;4973990;28;19925;-80
2022/07/07 12:25:56;;;;;;;;;;;;;;;;;;4961628;28;19926;-80
2022/07/07 12:28:22;;;;;;;;;;;;;;;;;;4992089;28;19918;-81
2022/07/07 12:30:51;;;;;;;;;;;;;;;;;;4973081;28;19914;-81
2022/07/07 12:33:23;;;;;;;;;;;;;;;;;;4977385;28;19898;-80
2022/07/07 12:35:57;;;;;;;;;;;;;;;;;;4999369;28;19918;-83
2022/07/07 12:41:17;;;;;;;;;;;;;;;;;;5765042;23;19915;-84
2022/07/07 12:43:47;;;;;;;;;;;;;;;;;;4975113;28;19953;-86
2022/07/07 12:46:19;;;;;;;;;;;;;;;;;;4961293;28;19965;-84
2022/07/07 12:48:49;;;;;;;;;;;;;;;;;;5029883;23;19926;-83
2022/07/07 12:51:15;;;;;;;;;;;;;;;;;;4963387;29;19914;-83
2022/07/07 12:53:42;;;;;;;;;;;;;;;;;;4950949;29;19921;-85
2022/07/07 12:56:08;;;;;;;;;;;;;;;;;;4960314;29;20622;-87
2022/07/07 12:58:34;;;;;;;;;;;;;;;;;;4974597;28;19972;-84
2022/07/07 13:00:59;;;;;;;;;;;;;;;;;;4958398;28;19921;-86
2022/07/07 13:03:25;;;;;;;;;;;;;;;;;;4941070;29;19915;-86
2022/07/07 13:05:51;;;;;;;;;;;;;;;;;;4958925;29;19965;-87
2022/07/07 13:08:17;;;;;;;;;;;;;;;;;;4958517;29;19961;-87
2022/07/07 13:10:43;;;;;;;;;;;;;;;;;;4971275;28;19915;-83
2022/07/07 13:13:10;;;;;;;;;;;;;;;;;;4946473;29;19918;-86
2022/07/07 13:15:36;;;;;;;;;;;;;;;;;;4957276;29;19918;-86
2022/07/07 13:18:02;;;;;;;;;;;;;;;;;;4973612;28;19923;-87
2022/07/07 13:20:28;;;;;;;;;;;;;;;;;;4956900;28;19915;-86
2022/07/07 13:22:54;;;;;;;;;;;;;;;;;;4955541;29;19993;-87
2022/07/07 13:25:20;;;;;;;;;;;;;;;;;;4956155;29;20305;-87
2022/07/07 13:27:46;;;;;;;;;;;;;;;;;;4939626;29;19921;-87
2022/07/07 13:30:13;;;;;;;;;;;;;;;;;;4955994;28;20001;-86
2022/07/07 13:32:42;;;;;;;;;;;;;;;;;;4954981;28;20023;-86
2022/07/07 13:35:08;;;;;;;;;;;;;;;;;;4954393;29;20401;-87
2022/07/07 13:37:37;;;;;;;;;;;;;;;;;;4955193;29;19922;-86
2022/07/07 13:40:03;;;;;;;;;;;;;;;;;;4954575;28;19953;-87
2022/07/07 13:42:32;;;;;;;;;;;;;;;;;;4971640;28;19961;-86
2022/07/07 13:44:58;;;;;;;;;;;;;;;;;;4970004;28;19954;-87
2022/07/07 13:47:24;;;;;;;;;;;;;;;;;;4954593;29;19923;-85
2022/07/07 13:49:50;;;;;;;;;;;;;;;;;;4969596;28;19918;-85
2022/07/07 13:52:16;;;;;;;;;;;;;;;;;;4939350;29;20005;-86
2022/07/07 13:54:42;;;;;;;;;;;;;;;;;;4957644;29;20021;-85
2022/07/07 13:57:09;;;;;;;;;;;;;;;;;;4941362;29;19919;-88
2022/07/07 13:59:35;;;;;;;;;;;;;;;;;;4957704;28;19910;-82
2022/07/07 14:02:01;;;;;;;;;;;;;;;;;;4972590;28;19974;-80
2022/07/07 14:04:30;;;;;;;;;;;;;;;;;;4960317;29;20075;-79
2022/07/07 14:07:05;;;;;;;;;;;;;;;;;;4946765;29;19942;-81
2022/07/07 14:09:31;;;;;;;;;;;;;;;;;;4958790;28;19914;-78
2022/07/07 14:11:57;;;;;;;;;;;;;;;;;;4957833;29;19911;-78
2022/07/07 14:14:24;;;;;;;;;;;;;;;;;;4955469;28;20012;-80
2022/07/07 14:16:50;;;;;;;;;;;;;;;;;;4955617;28;19929;-80
2022/07/07 14:19:16;;;;;;;;;;;;;;;;;;4954916;29;19917;-79
2022/07/07 14:21:42;;;;;;;;;;;;;;;;;;4971559;23;19985;-76
2022/07/07 14:24:08;;;;;;;;;;;;;;;;;;4975395;28;19957;-76
2022/07/07 14:26:39;;;;;;;;;;;;;;;;;;4944084;28;20364;-78
2022/07/07 14:29:13;;;;;;;;;;;;;;;;;;4961303;28;19914;-77
2022/07/07 14:31:41;;;;;;;;;;;;;;;;;;4960186;28;19914;-77
2022/07/07 14:34:07;;;;;;;;;;;;;;;;;;4991388;28;19921;-78
2022/07/07 14:36:33;;;;;;;;;;;;;;;;;;4991511;28;19918;-78
2022/07/07 14:38:59;;;;;;;;;;;;;;;;;;4992791;28;19917;-77
2022/07/07 14:41:24;;;;;;;;;;;;;;;;;;4991490;28;20348;-77
2022/07/07 14:43:50;;;;;;;;;;;;;;;;;;4992646;28;20319;-78
2022/07/07 14:46:16;;;;;;;;;;;;;;;;;;4991918;28;19996;-77
2022/07/07 14:48:42;;;;;;;;;;;;;;;;;;4992564;28;20008;-78
2022/07/07 14:51:08;;;;;;;;;;;;;;;;;;4991437;28;20462;-78
2022/07/07 14:53:34;;;;;;;;;;;;;;;;;;4992511;28;19914;-77
2022/07/07 14:55:59;;;;;;;;;;;;;;;;;;4975350;28;19913;-77
2022/07/07 14:58:25;;;;;;;;;;;;;;;;;;4975441;28;19946;-77
2022/07/07 15:00:51;;;;;;;;;;;;;;;;;;4991849;28;19913;-76
2022/07/07 15:03:16;;;;;;;;;;;;;;;;;;4978875;28;19914;-77
2022/07/07 15:05:42;;;;;;;;;;;;;;;;;;4979548;28;19916;-77
2022/07/07 15:08:07;;;;;;;;;;;;;;;;;;4995104;28;20415;-77
2022/07/07 15:10:34;;;;;;;;;;;;;;;;;;4995459;28;19917;-78
2022/07/07 15:13:00;;;;;;;;;;;;;;;;;;4978593;28;19953;-77
2022/07/07 15:15:25;;;;;;;;;;;;;;;;;;4978717;28;19913;-76
2022/07/07 15:17:51;;;;;;;;;;;;;;;;;;4978261;28;20088;-77
2022/07/07 15:20:16;;;;;;;;;;;;;;;;;;4995092;28;19917;-76
2022/07/07 15:22:42;;;;;;;;;;;;;;;;;;4996195;28;20432;-78
2022/07/07 15:25:08;;;;;;;;;;;;;;;;;;4962955;28;19914;-76
2022/07/07 15:27:33;;;;;;;;;;;;;;;;;;4978605;28;20292;-76
2022/07/07 15:29:59;;;;;;;;;;;;;;;;;;4995745;28;19921;-76
2022/07/07 15:32:24;;;;;;;;;;;;;;;;;;4994881;28;19921;-76
2022/07/07 15:34:50;;;;;;;;;;;;;;;;;;4962413;28;20414;-77
2022/07/07 15:37:15;;;;;;;;;;;;;;;;;;4995636;28;19920;-76
2022/07/07 15:39:41;;;;;;;;;;;;;;;;;;4978551;28;19914;-76
2022/07/07 15:42:08;;;;;;;;;;;;;;;;;;4962441;28;20037;-77
2022/07/07 15:44:34;;;;;;;;;;;;;;;;;;4978271;28;19980;-75
2022/07/07 15:46:59;;;;;;;;;;;;;;;;;;4995954;28;20421;-76
2022/07/07 15:49:25;;;;;;;;;;;;;;;;;;4996137;28;20376;-76
2022/07/07 15:51:53;;;;;;;;;;;;;;;;;;4978045;28;19920;-77
2022/07/07 15:54:19;;;;;;;;;;;;;;;;;;4961984;28;19914;-77
2022/07/07 15:56:44;;;;;;;;;;;;;;;;;;4977931;28;20316;-77
2022/07/07 15:59:10;;;;;;;;;;;;;;;;;;4978130;28;19913;-77
2022/07/07 16:01:36;;;;;;;;;;;;;;;;;;4977636;28;19949;-78
2022/07/07 16:06:47;;;;;;;;;;;;;;;;;;4978318;28;19968;-76
2022/07/07 16:09:13;;;;;;;;;;;;;;;;;;4993802;28;19949;-76
2022/07/07 16:11:38;;;;;;;;;;;;;;;;;;4994419;28;20391;-77
2022/07/07 16:14:04;;;;;;;;;;;;;;;;;;4995129;28;19918;-77
2022/07/07 16:16:30;;;;;;;;;;;;;;;;;;4977563;28;20357;-76
2022/07/07 16:18:55;;;;;;;;;;;;;;;;;;4994997;28;19945;-77
2022/07/07 16:21:21;;;;;;;;;;;;;;;;;;4961633;28;20285;-76
2022/07/07 16:23:47;;;;;;;;;;;;;;;;;;4961260;28;20399;-75
2022/07/07 16:26:13;;;;;;;;;;;;;;;;;;4961793;28;19914;-76
2022/07/07 16:28:38;;;;;;;;;;;;;;;;;;4993425;28;19976;-76
2022/07/07 16:31:04;;;;;;;;;;;;;;;;;;4977560;28;20299;-76
2022/07/07 16:33:29;;;;;;;;;;;;;;;;;;4977596;28;19920;-76
2022/07/07 16:35:55;;;;;;;;;;;;;;;;;;4977599;28;19957;-75
2022/07/07 16:38:24;;;;;;;;;;;;;;;;;;4978292;28;19979;-75
2022/07/07 16:40:49;;;;;;;;;;;;;;;;;;4977964;28;19985;-74
2022/07/07 16:43:15;;;;;;;;;;;;;;;;;;4994952;28;20270;-76
2022/07/07 16:45:41;;;;;;;;;;;;;;;;;;4961419;28;20308;-77
2022/07/07 16:48:07;;;;;;;;;;;;;;;;;;4977407;28;20263;-77
2022/07/07 16:50:32;;;;;;;;;;;;;;;;;;4992968;28;19976;-76
2022/07/07 16:52:59;;;;;;;;;;;;;;;;;;4960951;28;19914;-75
2022/07/07 16:55:24;;;;;;;;;;;;;;;;;;4976981;28;19921;-76
2022/07/07 16:57:50;;;;;;;;;;;;;;;;;;4976782;28;20304;-75
2022/07/07 17:00:15;;;;;;;;;;;;;;;;;;4977024;28;19975;-77
2022/07/07 17:02:41;;;;;;;;;;;;;;;;;;4993209;28;19954;-77
2022/07/07 17:05:07;;;;;;;;;;;;;;;;;;4977221;28;19918;-75
2022/07/07 17:07:33;;;;;;;;;;;;;;;;;;4993526;28;20388;-75
2022/07/07 17:09:59;;;;;;;;;;;;;;;;;;4976524;28;20000;-76
2022/07/07 17:12:24;;;;;;;;;;;;;;;;;;4976391;28;20018;-77
2022/07/07 17:14:50;;;;;;;;;;;;;;;;;;4993773;28;20373;-76
2022/07/07 17:17:15;;;;;;;;;;;;;;;;;;4960425;28;19922;-76
2022/07/07 17:19:41;;;;;;;;;;;;;;;;;;4960432;28;19965;-76
2022/07/07 17:22:06;;;;;;;;;;;;;;;;;;4976495;28;19965;-76
2022/07/07 17:24:32;;;;;;;;;;;;;;;;;;4993483;28;20008;-77
2022/07/07 17:26:58;;;;;;;;;;;;;;;;;;4959790;28;19917;-76
2022/07/07 17:29:24;;;;;;;;;;;;;;;;;;4960128;28;19914;-76
2022/07/07 17:31:49;;;;;;;;;;;;;;;;;;4993472;28;19979;-76
2022/07/07 17:34:15;;;;;;;;;;;;;;;;;;4993147;28;20008;-76
2022/07/07 17:36:41;;;;;;;;;;;;;;;;;;4993326;28;19925;-77
2022/07/07 17:39:06;;;;;;;;;;;;;;;;;;4959861;28;20000;-76
2022/07/07 17:41:32;;;;;;;;;;;;;;;;;;4975962;28;19914;-76
2022/07/07 17:43:58;;;;;;;;;;;;;;;;;;4959673;28;19925;-76
2022/07/07 17:46:23;;;;;;;;;;;;;;;;;;4993402;28;19993;-76
2022/07/07 17:48:52;;;;;;;;;;;;;;;;;;4975922;28;19914;-75
2022/07/07 17:51:18;;;;;;;;;;;;;;;;;;4976070;28;19996;-76
2022/07/07 17:53:43;;;;;;;;;;;;;;;;;;4993073;28;19976;-77
2022/07/07 17:56:09;;;;;;;;;;;;;;;;;;4976412;28;19917;-76
2022/07/07 17:58:35;;;;;;;;;;;;;;;;;;4993151;28;19914;-75
2022/07/07 18:01:00;;;;;;;;;;;;;;;;;;4975660;28;19914;-75
2022/07/07 18:03:27;;;;;;;;;;;;;;;;;;4992850;28;19914;-76
2022/07/07 18:05:52;;;;;;;;;;;;;;;;;;4991820;28;19913;-77